Time;durP1;ratioP1;P1;durP2;ratioP2;P2;SDS_P1;SDS_P2;PMS_P1;PMS_P2;Temp;Humidity;BMP_temperature;BMP_pressure;BME280_temperature;BME280_humidity;BME280_pressure;Samples;Min_cycle;Max_cycle;Signal;HPM_P1;HPM_P2
2022/07/29 00:00:46;;;;;;;3.67;1.20;;;;;;;;;;4938757;28;20039;-76
2022/07/29 00:03:12;;;;;;;4.07;1.65;;;;;;;;;;4946826;28;20385;-75
2022/07/29 00:05:39;;;;;;;8.45;1.80;;;;;;;;;;4947055;28;20039;-75
2022/07/29 00:08:04;;;;;;;4.53;1.20;;;;;;;;;;4949948;28;20102;-75
2022/07/29 00:10:30;;;;;;;3.35;1.35;;;;;;;;;;4936180;28;20044;-75
2022/07/29 00:12:55;;;;;;;7.60;1.45;;;;;;;;;;4940939;28;20046;-75
2022/07/29 00:15:20;;;;;;;3.25;1.20;;;;;;;;;;4933788;28;20036;-75
2022/07/29 00:17:46;;;;;;;10.30;1.20;;;;;;;;;;4931696;28;20106;-74
2022/07/29 00:20:11;;;;;;;6.68;1.40;;;;;;;;;;4949365;28;20062;-74
2022/07/29 00:22:38;;;;;;;5.22;1.98;;;;;;;;;;4952510;28;20537;-76
2022/07/29 00:25:04;;;;;;;5.93;2.10;;;;;;;;;;4948328;28;21572;-75
2022/07/29 00:27:29;;;;;;;3.58;1.65;;;;;;;;;;4953940;28;20038;-74
2022/07/29 00:29:54;;;;;;;10.93;2.30;;;;;;;;;;4950355;28;20110;-74
2022/07/29 00:32:20;;;;;;;4.32;1.80;;;;;;;;;;4952424;28;20027;-73
2022/07/29 00:37:29;;;;;;;4.18;1.73;;;;;;;;;;4949835;28;20046;-75
2022/07/29 00:39:55;;;;;;;6.05;1.85;;;;;;;;;;4949897;28;20039;-77
2022/07/29 00:42:20;;;;;;;4.72;1.63;;;;;;;;;;4950386;28;20479;-75
2022/07/29 00:44:45;;;;;;;5.93;1.63;;;;;;;;;;4950830;28;20027;-77
2022/07/29 00:47:12;;;;;;;3.17;1.48;;;;;;;;;;4949430;28;20190;-77
2022/07/29 00:49:40;;;;;;;4.35;1.75;;;;;;;;;;4950765;28;20047;-76
2022/07/29 00:52:07;;;;;;;4.50;1.48;;;;;;;;;;4950824;28;20093;-77
2022/07/29 00:54:34;;;;;;;5.18;1.65;;;;;;;;;;4940370;28;20040;-76
2022/07/29 00:56:59;;;;;;;3.53;1.60;;;;;;;;;;4929170;28;20027;-77
2022/07/29 00:59:26;;;;;;;3.95;1.80;;;;;;;;;;4931966;29;20469;-77
2022/07/29 01:01:53;;;;;;;3.47;1.85;;;;;;;;;;4932357;28;20039;-76
2022/07/29 01:04:20;;;;;;;3.60;1.95;;;;;;;;;;4944765;28;20403;-77
2022/07/29 01:06:47;;;;;;;4.63;2.13;;;;;;;;;;4949551;28;20492;-76
2022/07/29 01:09:13;;;;;;;4.43;1.90;;;;;;;;;;4946560;28;20044;-77
2022/07/29 01:11:39;;;;;;;5.38;1.63;;;;;;;;;;4932257;29;20131;-76
2022/07/29 01:14:06;;;;;;;5.50;1.80;;;;;;;;;;4944543;28;20387;-76
2022/07/29 01:16:37;;;;;;;2.80;1.70;;;;;;;;;;4950487;28;20039;-76
2022/07/29 01:20:04;;;;;;;4.45;1.80;;;;;;;;;;4947448;28;20583;-76
2022/07/29 01:23:09;;;;;;;4.60;1.90;;;;;;;;;;4885750;29;20052;-75
2022/07/29 01:26:03;;;;;;;5.72;1.95;;;;;;;;;;4933611;28;20032;-75
2022/07/29 01:29:02;;;;;;;4.82;1.80;;;;;;;;;;4932371;29;20515;-76
2022/07/29 01:32:01;;;;;;;4.95;2.10;;;;;;;;;;4947946;28;20166;-77
2022/07/29 01:35:00;;;;;;;5.00;1.70;;;;;;;;;;4952886;28;20050;-77
2022/07/29 01:37:32;;;;;;;4.45;1.58;;;;;;;;;;4941390;28;20035;-76
2022/07/29 01:39:59;;;;;;;5.25;1.90;;;;;;;;;;4953191;28;20039;-76
2022/07/29 01:42:33;;;;;;;4.25;1.77;;;;;;;;;;4952157;28;20047;-75
2022/07/29 01:45:19;;;;;;;3.95;1.70;;;;;;;;;;4951392;28;20037;-75
2022/07/29 01:48:00;;;;;;;5.40;1.73;;;;;;;;;;4933491;28;20116;-76
2022/07/29 01:50:32;;;;;;;3.45;1.70;;;;;;;;;;4933752;29;20039;-75
2022/07/29 01:53:04;;;;;;;;;;;;;;;;;;4950933;28;20041;-75
2022/07/29 01:55:34;;;;;;;3.97;1.95;;;;;;;;;;4939806;28;20000;-75
2022/07/29 01:58:02;;;;;;;5.22;2.65;;;;;;;;;;4933493;28;20039;-75
2022/07/29 02:00:31;;;;;;;4.63;2.13;;;;;;;;;;4930807;28;20138;-77
2022/07/29 02:02:59;;;;;;;5.70;2.42;;;;;;;;;;4936931;28;20019;-76
2022/07/29 02:05:27;;;;;;;3.58;2.20;;;;;;;;;;4928640;29;20051;-76
2022/07/29 02:07:53;;;;;;;5.38;2.30;;;;;;;;;;4948867;28;20031;-76
2022/07/29 02:10:23;;;;;;;4.18;2.00;;;;;;;;;;4953965;28;20048;-76
2022/07/29 02:12:50;;;;;;;4.68;2.08;;;;;;;;;;4954088;28;20043;-76
2022/07/29 02:15:16;;;;;;;5.85;2.60;;;;;;;;;;4952673;28;20050;-75
2022/07/29 02:17:53;;;;;;;4.93;2.17;;;;;;;;;;4954890;28;20054;-77
2022/07/29 02:20:19;;;;;;;8.43;2.47;;;;;;;;;;4953116;28;20033;-77
2022/07/29 02:22:46;;;;;;;4.90;2.25;;;;;;;;;;4954695;28;20043;-76
2022/07/29 02:25:13;;;;;;;5.05;2.10;;;;;;;;;;4949591;28;20044;-76
2022/07/29 02:27:40;;;;;;;7.78;2.95;;;;;;;;;;4952545;28;20050;-76
2022/07/29 02:30:06;;;;;;;7.15;2.30;;;;;;;;;;4952686;28;20074;-76
2022/07/29 02:32:37;;;;;;;5.05;2.40;;;;;;;;;;4955239;28;20080;-77
2022/07/29 02:35:02;;;;;;;8.32;2.75;;;;;;;;;;4951486;28;20133;-74
2022/07/29 02:37:30;;;;;;;5.53;2.80;;;;;;;;;;4953324;28;20519;-75
2022/07/29 02:39:58;;;;;;;4.28;2.08;;;;;;;;;;4956760;28;20039;-76
2022/07/29 02:42:26;;;;;;;7.95;2.42;;;;;;;;;;4955067;28;20153;-76
2022/07/29 02:44:52;;;;;;;9.40;2.03;;;;;;;;;;4949909;28;20555;-77
2022/07/29 02:47:24;;;;;;;7.20;2.25;;;;;;;;;;4935334;29;20035;-76
2022/07/29 02:50:11;;;;;;;6.18;2.63;;;;;;;;;;4947757;28;20049;-77
2022/07/29 02:53:05;;;;;;;4.93;2.15;;;;;;;;;;4932184;28;20063;-76
2022/07/29 02:55:36;;;;;;;5.40;2.30;;;;;;;;;;4951992;28;20859;-76
2022/07/29 02:58:08;;;;;;;10.70;2.10;;;;;;;;;;4949900;28;20042;-76
2022/07/29 03:00:37;;;;;;;5.77;2.20;;;;;;;;;;4976435;28;20083;-78
2022/07/29 03:03:06;;;;;;;3.70;2.00;;;;;;;;;;4950027;28;20036;-77
2022/07/29 03:05:32;;;;;;;5.95;2.22;;;;;;;;;;4930668;29;20488;-76
2022/07/29 03:08:02;;;;;;;5.57;2.50;;;;;;;;;;4948430;28;20064;-75
2022/07/29 03:10:28;;;;;;;6.20;2.78;;;;;;;;;;4951377;28;20043;-76
2022/07/29 03:12:55;;;;;;;3.90;2.08;;;;;;;;;;4955217;28;20252;-77
2022/07/29 03:15:21;;;;;;;4.53;2.40;;;;;;;;;;4949348;28;20098;-77
2022/07/29 03:17:47;;;;;;;4.65;2.50;;;;;;;;;;4953683;28;20031;-77
2022/07/29 03:20:13;;;;;;;4.93;2.30;;;;;;;;;;4982983;28;20078;-76
2022/07/29 03:22:43;;;;;;;7.38;3.13;;;;;;;;;;4936257;28;20574;-76
2022/07/29 03:25:13;;;;;;;5.15;2.50;;;;;;;;;;4962792;28;20044;-78
2022/07/29 03:27:38;;;;;;;6.05;3.00;;;;;;;;;;4930151;28;20044;-77
2022/07/29 03:30:05;;;;;;;6.07;2.53;;;;;;;;;;4935005;28;20051;-75
2022/07/29 03:32:31;;;;;;;4.93;2.50;;;;;;;;;;4934888;29;20452;-75
2022/07/29 03:34:56;;;;;;;6.38;2.90;;;;;;;;;;4951719;28;20043;-76
2022/07/29 03:37:21;;;;;;;4.18;2.50;;;;;;;;;;4950709;28;20050;-75
2022/07/29 03:39:49;;;;;;;6.43;3.28;;;;;;;;;;4948945;28;20054;-77
2022/07/29 03:42:17;;;;;;;4.63;2.78;;;;;;;;;;4928978;28;20031;-75
2022/07/29 03:44:47;;;;;;;4.15;2.60;;;;;;;;;;4927530;28;20032;-76
2022/07/29 03:47:14;;;;;;;9.32;3.00;;;;;;;;;;4933110;29;20027;-77
2022/07/29 03:49:41;;;;;;;4.95;2.65;;;;;;;;;;4931646;28;20051;-76
2022/07/29 03:52:07;;;;;;;5.05;2.70;;;;;;;;;;4932202;28;21463;-75
2022/07/29 03:54:33;;;;;;;6.85;3.25;;;;;;;;;;4932533;28;20611;-76
2022/07/29 03:57:01;;;;;;;5.35;2.70;;;;;;;;;;4931733;28;20114;-75
2022/07/29 03:59:27;;;;;;;8.50;3.25;;;;;;;;;;4934848;29;20120;-77
2022/07/29 04:01:54;;;;;;;7.53;3.13;;;;;;;;;;4933161;28;20528;-77
2022/07/29 04:04:20;;;;;;;7.65;3.00;;;;;;;;;;4934234;28;20031;-76
2022/07/29 04:06:46;;;;;;;8.23;3.50;;;;;;;;;;4932408;28;20046;-77
2022/07/29 04:09:12;;;;;;;5.32;3.15;;;;;;;;;;4930618;29;20048;-76
2022/07/29 04:11:41;;;;;;;6.18;3.42;;;;;;;;;;4940005;29;20040;-76
2022/07/29 04:14:07;;;;;;;5.38;2.85;;;;;;;;;;4934314;29;21704;-77
2022/07/29 04:16:32;;;;;;;4.25;2.80;;;;;;;;;;4949299;28;20039;-76
2022/07/29 04:18:58;;;;;;;7.18;3.53;;;;;;;;;;4939333;28;20035;-78
2022/07/29 04:21:23;;;;;;;4.95;3.17;;;;;;;;;;4931013;29;20071;-76
2022/07/29 04:23:49;;;;;;;4.95;3.17;;;;;;;;;;4930672;28;20059;-76
2022/07/29 04:26:16;;;;;;;5.60;3.60;;;;;;;;;;4931784;29;20031;-76
2022/07/29 04:28:42;;;;;;;7.38;3.72;;;;;;;;;;4934830;28;20042;-75
2022/07/29 04:31:08;;;;;;;5.40;3.58;;;;;;;;;;4935285;28;20047;-73
2022/07/29 04:33:33;;;;;;;5.05;3.50;;;;;;;;;;4936560;28;20190;-78
2022/07/29 04:35:59;;;;;;;6.28;3.10;;;;;;;;;;4948839;28;20034;-77
2022/07/29 04:38:24;;;;;;;6.97;3.55;;;;;;;;;;4928881;29;20480;-78
2022/07/29 04:40:50;;;;;;;6.30;3.65;;;;;;;;;;4949470;28;20031;-76
2022/07/29 04:43:15;;;;;;;6.68;3.25;;;;;;;;;;4942941;28;20032;-77
2022/07/29 04:45:41;;;;;;;7.35;3.47;;;;;;;;;;4930539;28;20036;-77
2022/07/29 04:48:06;;;;;;;4.68;3.58;;;;;;;;;;4935347;28;20039;-76
2022/07/29 04:50:32;;;;;;;9.10;3.72;;;;;;;;;;4954337;28;20035;-78
2022/07/29 04:52:57;;;;;;;6.95;3.25;;;;;;;;;;4954293;28;20034;-78
2022/07/29 04:55:23;;;;;;;4.65;3.47;;;;;;;;;;4936044;28;20389;-75
2022/07/29 04:57:48;;;;;;;4.03;3.53;;;;;;;;;;4936918;28;20642;-77
2022/07/29 05:00:14;;;;;;;5.35;3.05;;;;;;;;;;4933572;28;20050;-78
2022/07/29 05:02:39;;;;;;;5.32;3.42;;;;;;;;;;4966819;28;20053;-77
2022/07/29 05:05:05;;;;;;;6.25;3.60;;;;;;;;;;4929342;28;20529;-77
2022/07/29 05:07:30;;;;;;;6.53;3.58;;;;;;;;;;4947277;28;20047;-77
2022/07/29 05:09:56;;;;;;;6.07;3.20;;;;;;;;;;4940539;28;20564;-77
2022/07/29 05:12:23;;;;;;;4.70;3.10;;;;;;;;;;4939053;28;20055;-78
2022/07/29 05:14:48;;;;;;;7.45;4.13;;;;;;;;;;4961583;28;20050;-77
2022/07/29 05:17:14;;;;;;;5.25;3.20;;;;;;;;;;4929907;29;20028;-75
2022/07/29 05:19:39;;;;;;;7.32;3.30;;;;;;;;;;4929642;28;20047;-76
2022/07/29 05:22:05;;;;;;;5.15;3.20;;;;;;;;;;4945310;28;20054;-78
2022/07/29 05:24:30;;;;;;;5.88;3.60;;;;;;;;;;4951776;28;20130;-78
2022/07/29 05:26:56;;;;;;;5.10;3.10;;;;;;;;;;4953734;28;20046;-77
2022/07/29 05:29:21;;;;;;;10.25;3.38;;;;;;;;;;4948444;28;20032;-76
2022/07/29 05:31:46;;;;;;;5.28;3.40;;;;;;;;;;4950880;28;20035;-78
2022/07/29 05:34:12;;;;;;;5.15;3.17;;;;;;;;;;4950395;28;20071;-78
2022/07/29 05:36:37;;;;;;;4.53;3.00;;;;;;;;;;4947761;28;20054;-77
2022/07/29 05:39:03;;;;;;;5.72;3.38;;;;;;;;;;4937277;28;20031;-78
2022/07/29 05:41:31;;;;;;;6.22;3.40;;;;;;;;;;4977783;28;20035;-78
2022/07/29 05:43:58;;;;;;;9.65;3.00;;;;;;;;;;4931554;28;20038;-76
2022/07/29 05:46:23;;;;;;;4.47;2.70;;;;;;;;;;4927446;28;20047;-76
2022/07/29 05:48:48;;;;;;;7.10;2.88;;;;;;;;;;4924600;28;20764;-77
2022/07/29 05:51:14;;;;;;;3.17;2.60;;;;;;;;;;4927760;28;20075;-75
2022/07/29 05:53:39;;;;;;;5.95;2.88;;;;;;;;;;4932608;29;20031;-75
2022/07/29 05:56:05;;;;;;;7.47;2.83;;;;;;;;;;4930177;28;20039;-74
2022/07/29 05:58:31;;;;;;;8.00;3.05;;;;;;;;;;4943957;28;20079;-76
2022/07/29 06:00:59;;;;;;;6.05;3.08;;;;;;;;;;4953680;28;20089;-77
2022/07/29 06:03:25;;;;;;;4.40;2.78;;;;;;;;;;4949689;28;20049;-77
2022/07/29 06:05:50;;;;;;;3.53;2.70;;;;;;;;;;4948406;28;20110;-77
2022/07/29 06:08:15;;;;;;;3.65;2.30;;;;;;;;;;4964605;28;20185;-77
2022/07/29 06:10:41;;;;;;;7.80;2.70;;;;;;;;;;4952546;28;20541;-77
2022/07/29 06:13:06;;;;;;;3.72;2.65;;;;;;;;;;4949998;28;20778;-77
2022/07/29 06:15:32;;;;;;;6.05;2.60;;;;;;;;;;4942840;28;20055;-76
2022/07/29 06:17:57;;;;;;;5.13;2.63;;;;;;;;;;4933541;28;20513;-73
2022/07/29 06:20:23;;;;;;;4.30;2.25;;;;;;;;;;4932798;29;20039;-73
2022/07/29 06:22:48;;;;;;;3.65;2.22;;;;;;;;;;4950591;28;20118;-77
2022/07/29 06:25:14;;;;;;;8.48;2.40;;;;;;;;;;4941815;28;20047;-75
2022/07/29 06:27:39;;;;;;;4.68;2.13;;;;;;;;;;4936008;29;20399;-76
2022/07/29 06:30:06;;;;;;;5.07;2.30;;;;;;;;;;4938765;28;20127;-75
2022/07/29 06:32:32;;;;;;;3.78;2.53;;;;;;;;;;4957133;28;20660;-76
2022/07/29 06:34:58;;;;;;;6.50;2.60;;;;;;;;;;4936803;28;20039;-76
2022/07/29 06:37:24;;;;;;;6.65;2.40;;;;;;;;;;4946064;28;20043;-75
2022/07/29 06:40:59;;;;;;;3.42;2.05;;;;;;;;;;4969340;28;20573;-77
2022/07/29 06:42:34;;;;;;;4.65;2.25;;;;;;;;;;4946959;28;20165;-74
2022/07/29 06:45:00;;;;;;;6.45;2.53;;;;;;;;;;4937211;28;20776;-75
2022/07/29 06:47:25;;;;;;;4.90;2.03;;;;;;;;;;4936537;29;20039;-75
2022/07/29 06:49:50;;;;;;;4.75;2.25;;;;;;;;;;4954302;28;20039;-75
2022/07/29 06:52:16;;;;;;;7.30;2.22;;;;;;;;;;4936934;28;20039;-75
2022/07/29 06:54:47;;;;;;;3.83;2.25;;;;;;;;;;4935909;28;20135;-76
2022/07/29 06:57:13;;;;;;;4.68;2.63;;;;;;;;;;4937033;29;20551;-74
2022/07/29 06:59:39;;;;;;;10.57;2.45;;;;;;;;;;4935658;29;20035;-77
2022/07/29 07:02:04;;;;;;;4.72;2.08;;;;;;;;;;4953813;28;20107;-77
2022/07/29 07:04:30;;;;;;;5.40;2.15;;;;;;;;;;4939903;28;20032;-76
2022/07/29 07:06:55;;;;;;;4.25;2.05;;;;;;;;;;4933891;28;20047;-76
2022/07/29 07:09:21;;;;;;;6.63;2.65;;;;;;;;;;4934445;28;20036;-76
2022/07/29 07:11:46;;;;;;;3.88;2.35;;;;;;;;;;4933209;29;20046;-76
2022/07/29 07:14:12;;;;;;;5.57;2.17;;;;;;;;;;4938763;28;20087;-74
2022/07/29 07:16:37;;;;;;;5.05;2.15;;;;;;;;;;4956650;28;20061;-76
2022/07/29 07:19:02;;;;;;;6.13;2.00;;;;;;;;;;4954081;28;20035;-74
2022/07/29 07:21:28;;;;;;;13.70;2.42;;;;;;;;;;4954515;28;20034;-76
2022/07/29 07:23:57;;;;;;;5.68;2.13;;;;;;;;;;4943394;28;20035;-74
2022/07/29 07:26:25;;;;;;;8.25;2.00;;;;;;;;;;4951984;28;20159;-76
2022/07/29 07:28:51;;;;;;;4.53;1.92;;;;;;;;;;4933620;29;20162;-76
2022/07/29 07:31:17;;;;;;;7.82;2.28;;;;;;;;;;4951319;28;20043;-76
2022/07/29 07:33:42;;;;;;;5.90;2.00;;;;;;;;;;4944951;28;20031;-76
2022/07/29 07:36:07;;;;;;;6.63;1.80;;;;;;;;;;4939273;28;20049;-76
2022/07/29 07:38:33;;;;;;;7.03;2.30;;;;;;;;;;4954196;28;20058;-76
2022/07/29 07:40:59;;;;;;;4.00;2.03;;;;;;;;;;4935693;28;20404;-74
2022/07/29 07:43:24;;;;;;;7.43;2.08;;;;;;;;;;4947074;28;20047;-76
2022/07/29 07:45:49;;;;;;;6.43;1.98;;;;;;;;;;4954591;28;20035;-75
2022/07/29 07:48:15;;;;;;;7.63;2.03;;;;;;;;;;4953454;28;20050;-74
2022/07/29 07:50:40;;;;;;;7.30;1.80;;;;;;;;;;4954389;28;20383;-75
2022/07/29 07:53:05;;;;;;;4.88;1.95;;;;;;;;;;4952560;28;20050;-76
2022/07/29 07:55:31;;;;;;;3.50;1.65;;;;;;;;;;4931756;28;20059;-76
2022/07/29 07:57:56;;;;;;;5.38;2.05;;;;;;;;;;4944510;28;20049;-76
2022/07/29 08:00:22;;;;;;;6.18;1.88;;;;;;;;;;4946913;28;20361;-76
2022/07/29 08:02:48;;;;;;;3.58;2.17;;;;;;;;;;4934901;28;20120;-74
2022/07/29 08:05:16;;;;;;;3.60;2.10;;;;;;;;;;4955010;28;20086;-74
2022/07/29 08:07:44;;;;;;;7.85;2.10;;;;;;;;;;4934373;28;20064;-73
2022/07/29 08:10:10;;;;;;;7.15;2.15;;;;;;;;;;4950019;28;20499;-76
2022/07/29 08:12:35;;;;;;;4.50;2.20;;;;;;;;;;4951890;28;20059;-76
2022/07/29 08:15:01;;;;;;;7.25;2.05;;;;;;;;;;4954857;28;20392;-73
2022/07/29 08:17:26;;;;;;;4.95;2.00;;;;;;;;;;4955574;28;20031;-73
2022/07/29 08:19:52;;;;;;;4.68;2.15;;;;;;;;;;4938008;28;20099;-75
2022/07/29 08:22:17;;;;;;;6.45;2.55;;;;;;;;;;4933642;28;20054;-73
2022/07/29 08:24:43;;;;;;;5.75;2.65;;;;;;;;;;4935579;28;20063;-74
2022/07/29 08:27:09;;;;;;;6.13;1.90;;;;;;;;;;4936107;28;20035;-74
2022/07/29 08:29:35;;;;;;;13.55;2.28;;;;;;;;;;4950797;28;20038;-74
2022/07/29 08:32:01;;;;;;;7.53;2.58;;;;;;;;;;4937227;28;20102;-76
2022/07/29 08:34:26;;;;;;;3.28;2.00;;;;;;;;;;4959185;28;20039;-75
2022/07/29 08:36:52;;;;;;;5.78;2.10;;;;;;;;;;4942902;28;20042;-74
2022/07/29 08:39:17;;;;;;;9.77;1.90;;;;;;;;;;4934936;28;20043;-73
2022/07/29 08:41:43;;;;;;;5.82;2.30;;;;;;;;;;4955259;28;20118;-74
2022/07/29 08:44:09;;;;;;;7.65;2.55;;;;;;;;;;4950868;28;20476;-75
2022/07/29 08:46:39;;;;;;;5.07;1.83;;;;;;;;;;4947495;28;20555;-74
2022/07/29 08:49:05;;;;;;;4.43;1.83;;;;;;;;;;4940882;28;20047;-76
2022/07/29 08:51:35;;;;;;;7.28;1.52;;;;;;;;;;4950262;28;20069;-75
2022/07/29 08:54:01;;;;;;;7.82;2.03;;;;;;;;;;4949702;28;20047;-74
2022/07/29 08:56:27;;;;;;;8.35;2.03;;;;;;;;;;4983499;28;20024;-74
2022/07/29 08:58:53;;;;;;;12.60;4.55;;;;;;;;;;4936718;28;20040;-76
2022/07/29 09:01:23;;;;;;;5.65;2.00;;;;;;;;;;4943919;28;20039;-74
2022/07/29 09:03:49;;;;;;;12.07;1.92;;;;;;;;;;4944326;28;20164;-76
2022/07/29 09:06:17;;;;;;;8.82;2.30;;;;;;;;;;4934069;29;20044;-73
2022/07/29 09:08:44;;;;;;;7.75;1.77;;;;;;;;;;4922533;28;20031;-73
2022/07/29 09:11:11;;;;;;;8.05;2.10;;;;;;;;;;4965273;28;20031;-74
2022/07/29 09:13:36;;;;;;;3.58;1.88;;;;;;;;;;4933663;29;20040;-78
2022/07/29 09:16:02;;;;;;;8.27;2.17;;;;;;;;;;4933967;28;20035;-76
2022/07/29 09:18:42;;;;;;;5.50;2.25;;;;;;;;;;4942328;28;20054;-75
2022/07/29 09:24:11;;;;;;;6.60;2.17;;;;;;;;;;4941960;28;20085;-73
2022/07/29 09:26:43;;;;;;;7.05;2.13;;;;;;;;;;4957869;28;20407;-76
2022/07/29 09:29:15;;;;;;;9.20;2.13;;;;;;;;;;4955310;28;20056;-74
2022/07/29 09:31:43;;;;;;;7.60;2.03;;;;;;;;;;4951116;28;20058;-75
2022/07/29 09:34:12;;;;;;;4.50;1.90;;;;;;;;;;4956411;28;20525;-74
2022/07/29 09:36:48;;;;;;;4.95;1.80;;;;;;;;;;4960660;28;20051;-76
2022/07/29 09:39:15;;;;;;;7.35;1.90;;;;;;;;;;4954638;28;20035;-75
2022/07/29 09:41:49;;;;;;;5.03;2.10;;;;;;;;;;4936665;28;20059;-74
2022/07/29 09:44:15;;;;;;;9.68;2.30;;;;;;;;;;4965395;28;20043;-73
2022/07/29 09:47:07;;;;;;;3.28;1.90;;;;;;;;;;4937759;28;20040;-75
2022/07/29 09:49:34;;;;;;;11.27;2.33;;;;;;;;;;4948139;28;20534;-77
2022/07/29 09:52:10;;;;;;;3.15;1.73;;;;;;;;;;4947146;28;20094;-74
2022/07/29 09:54:36;;;;;;;3.85;2.20;;;;;;;;;;4968172;28;20118;-76
2022/07/29 09:57:08;;;;;;;8.80;2.17;;;;;;;;;;4933232;29;20485;-76
2022/07/29 09:59:34;;;;;;;6.78;2.17;;;;;;;;;;4932555;29;20110;-75
2022/07/29 10:01:59;;;;;;;3.10;2.00;;;;;;;;;;4950050;28;20039;-74
2022/07/29 10:04:37;;;;;;;6.68;2.13;;;;;;;;;;4938489;28;20043;-73
2022/07/29 10:07:04;;;;;;;11.50;2.08;;;;;;;;;;4943888;28;20046;-74
2022/07/29 10:09:30;;;;;;;7.38;3.03;;;;;;;;;;4952446;28;20385;-75
2022/07/29 10:12:14;;;;;;;3.58;1.75;;;;;;;;;;4936203;28;20039;-72
2022/07/29 10:14:41;;;;;;;8.50;2.33;;;;;;;;;;4935058;29;20023;-72
2022/07/29 10:17:09;;;;;;;5.63;1.90;;;;;;;;;;4932807;28;20043;-74
2022/07/29 10:19:35;;;;;;;5.80;1.83;;;;;;;;;;4932258;28;20040;-75
2022/07/29 10:22:04;;;;;;;2.80;1.58;;;;;;;;;;4949072;28;20058;-73
2022/07/29 10:24:31;;;;;;;5.07;2.13;;;;;;;;;;4984617;28;20035;-73
2022/07/29 10:27:00;;;;;;;14.10;2.20;;;;;;;;;;4955884;28;20035;-75
2022/07/29 10:29:26;;;;;;;5.03;1.88;;;;;;;;;;4953780;28;20024;-73
2022/07/29 10:32:26;;;;;;;4.95;2.17;;;;;;;;;;4937830;28;20055;-75
2022/07/29 10:35:34;;;;;;;4.00;2.03;;;;;;;;;;4932734;28;20040;-74
2022/07/29 10:38:21;;;;;;;3.22;1.77;;;;;;;;;;4947900;28;20090;-75
2022/07/29 10:41:46;;;;;;;4.25;2.10;;;;;;;;;;4931993;28;20487;-76
2022/07/29 10:43:53;;;;;;;5.45;1.88;;;;;;;;;;4928320;29;20512;-73
2022/07/29 10:46:19;;;;;;;6.68;2.20;;;;;;;;;;4944921;28;20817;-74
2022/07/29 10:49:18;;;;;;;5.45;2.17;;;;;;;;;;4946825;28;20119;-75
2022/07/29 10:52:12;;;;;;;3.97;2.25;;;;;;;;;;4901574;28;20098;-75
2022/07/29 10:54:44;;;;;;;4.93;1.80;;;;;;;;;;4934703;28;20126;-75
2022/07/29 10:57:31;;;;;;;4.70;2.28;;;;;;;;;;4933522;28;20050;-75
2022/07/29 11:00:13;;;;;;;4.93;2.20;;;;;;;;;;4933138;28;21167;-74
2022/07/29 11:02:42;;;;;;;3.05;2.08;;;;;;;;;;4931777;29;20035;-76
2022/07/29 11:05:17;;;;;;;6.45;1.90;;;;;;;;;;4934223;29;20052;-74
2022/07/29 11:08:13;;;;;;;4.40;2.13;;;;;;;;;;4933256;28;20127;-75
2022/07/29 11:10:39;;;;;;;7.10;2.20;;;;;;;;;;4947836;28;20063;-74
2022/07/29 11:13:05;;;;;;;8.93;2.05;;;;;;;;;;4959966;28;20129;-73
2022/07/29 11:15:54;;;;;;;3.42;2.20;;;;;;;;;;4941719;28;20035;-75
2022/07/29 11:18:19;;;;;;;6.00;2.10;;;;;;;;;;4955116;28;20038;-74
2022/07/29 11:20:48;;;;;;;7.60;2.15;;;;;;;;;;4973164;28;20035;-73
2022/07/29 11:23:24;;;;;;;6.70;2.13;;;;;;;;;;4931658;29;20042;-74
2022/07/29 11:26:22;;;;;;;7.10;2.35;;;;;;;;;;4934214;28;20057;-73
2022/07/29 11:28:51;;;;;;;4.47;2.25;;;;;;;;;;4954753;28;20023;-72
2022/07/29 11:31:31;;;;;;;9.02;2.13;;;;;;;;;;4937751;28;20059;-71
2022/07/29 11:33:57;;;;;;;8.48;2.25;;;;;;;;;;4958721;28;20044;-73
2022/07/29 11:36:22;;;;;;;6.05;2.00;;;;;;;;;;4940103;28;20063;-73
2022/07/29 11:38:48;;;;;;;9.85;2.30;;;;;;;;;;4951383;28;20054;-75
2022/07/29 11:41:28;;;;;;;5.50;2.08;;;;;;;;;;4954416;28;20034;-73
2022/07/29 11:43:59;;;;;;;8.07;2.38;;;;;;;;;;4954048;28;20503;-75
2022/07/29 11:46:48;;;;;;;6.85;2.10;;;;;;;;;;4950841;28;20079;-76
2022/07/29 11:49:25;;;;;;;5.70;2.30;;;;;;;;;;4940277;28;20055;-75
2022/07/29 11:51:56;;;;;;;4.07;1.90;;;;;;;;;;4947926;28;20038;-73
2022/07/29 11:54:28;;;;;;;5.43;1.83;;;;;;;;;;4937947;28;20051;-73
2022/07/29 11:56:54;;;;;;;3.05;1.90;;;;;;;;;;4948578;28;20031;-76
2022/07/29 11:59:21;;;;;;;3.88;1.95;;;;;;;;;;4953647;28;20020;-74
2022/07/29 12:01:58;;;;;;;6.28;2.03;;;;;;;;;;4949983;28;20031;-75
2022/07/29 12:04:23;;;;;;;5.30;1.80;;;;;;;;;;4953419;28;20046;-74
2022/07/29 12:06:53;;;;;;;2.78;2.10;;;;;;;;;;4949075;28;20412;-73
2022/07/29 12:09:19;;;;;;;2.85;2.00;;;;;;;;;;4967525;28;20043;-72
2022/07/29 12:11:46;;;;;;;5.15;1.80;;;;;;;;;;4950292;28;20388;-74
2022/07/29 12:14:32;;;;;;;8.85;2.38;;;;;;;;;;4951590;28;20279;-74
2022/07/29 12:16:59;;;;;;;3.35;1.70;;;;;;;;;;4947581;28;20373;-73
2022/07/29 12:19:25;;;;;;;2.45;1.90;;;;;;;;;;4949345;28;20067;-72
2022/07/29 12:21:55;;;;;;;3.10;1.83;;;;;;;;;;4948913;28;20039;-75
2022/07/29 12:24:21;;;;;;;6.85;2.10;;;;;;;;;;4951228;28;20384;-75
2022/07/29 12:26:57;;;;;;;3.13;2.03;;;;;;;;;;4952340;28;20502;-75
2022/07/29 12:29:24;;;;;;;4.07;2.17;;;;;;;;;;4949439;28;20031;-76
2022/07/29 12:31:56;;;;;;;6.72;1.90;;;;;;;;;;4948380;28;20035;-73
2022/07/29 12:34:24;;;;;;;3.45;2.00;;;;;;;;;;4950328;28;20040;-75
2022/07/29 12:36:50;;;;;;;6.20;1.95;;;;;;;;;;4940840;28;20036;-75
2022/07/29 12:39:19;;;;;;;3.25;2.17;;;;;;;;;;4926574;28;20086;-74
2022/07/29 12:41:45;;;;;;;4.20;2.10;;;;;;;;;;4930034;28;20135;-76
2022/07/29 12:44:11;;;;;;;7.75;1.80;;;;;;;;;;4931305;29;20862;-74
2022/07/29 12:46:36;;;;;;;5.43;2.20;;;;;;;;;;4946948;28;20039;-73
2022/07/29 12:49:02;;;;;;;6.60;2.50;;;;;;;;;;4947874;28;20034;-74
2022/07/29 12:51:29;;;;;;;2.38;2.00;;;;;;;;;;4939085;28;20134;-74
2022/07/29 12:54:02;;;;;;;3.28;1.80;;;;;;;;;;4929866;28;20028;-73
2022/07/29 12:56:28;;;;;;;4.97;2.30;;;;;;;;;;4932979;29;20451;-74
2022/07/29 12:58:53;;;;;;;3.90;2.20;;;;;;;;;;4932293;28;20039;-71
2022/07/29 13:01:20;;;;;;;3.30;2.22;;;;;;;;;;4933466;28;20061;-77
2022/07/29 13:04:00;;;;;;;3.35;2.30;;;;;;;;;;4930983;29;20416;-74
2022/07/29 13:06:36;;;;;;;3.65;1.95;;;;;;;;;;4945134;28;20055;-72
2022/07/29 13:09:06;;;;;;;5.50;2.08;;;;;;;;;;4929499;28;20047;-70
2022/07/29 13:11:34;;;;;;;4.45;2.20;;;;;;;;;;4933848;28;20055;-72
2022/07/29 13:14:00;;;;;;;3.05;2.28;;;;;;;;;;4932311;28;20123;-72
2022/07/29 13:16:25;;;;;;;3.13;2.17;;;;;;;;;;4948554;28;20518;-73
2022/07/29 13:19:04;;;;;;;2.70;1.80;;;;;;;;;;4943104;28;20571;-73
2022/07/29 13:21:29;;;;;;;3.88;2.10;;;;;;;;;;4932772;28;20587;-73
2022/07/29 13:23:55;;;;;;;3.40;2.08;;;;;;;;;;4934761;28;20027;-72
2022/07/29 13:26:20;;;;;;;2.92;1.88;;;;;;;;;;4957936;28;20018;-74
2022/07/29 13:28:46;;;;;;;4.50;1.98;;;;;;;;;;4938642;28;20639;-73
2022/07/29 13:31:11;;;;;;;4.45;1.77;;;;;;;;;;4933631;28;20431;-73
2022/07/29 13:33:36;;;;;;;3.85;1.60;;;;;;;;;;4935225;28;20044;-75
2022/07/29 13:36:02;;;;;;;2.35;1.70;;;;;;;;;;4934803;28;20042;-73
2022/07/29 13:38:27;;;;;;;3.92;1.80;;;;;;;;;;4954328;28;20034;-74
2022/07/29 13:40:53;;;;;;;3.92;1.80;;;;;;;;;;4933729;28;20115;-74
2022/07/29 13:43:18;;;;;;;3.50;1.70;;;;;;;;;;4947783;28;20035;-76
2022/07/29 13:45:44;;;;;;;2.45;1.80;;;;;;;;;;4945167;28;20036;-75
2022/07/29 13:48:09;;;;;;;5.75;1.92;;;;;;;;;;4936078;28;20036;-74
2022/07/29 13:50:34;;;;;;;2.85;1.77;;;;;;;;;;4932855;29;20024;-75
2022/07/29 13:53:00;;;;;;;2.88;2.00;;;;;;;;;;4950500;28;20036;-73
2022/07/29 13:55:25;;;;;;;3.42;2.30;;;;;;;;;;4940580;28;20492;-73
2022/07/29 13:57:51;;;;;;;5.75;2.35;;;;;;;;;;4936406;28;20039;-73
2022/07/29 14:00:16;;;;;;;5.15;2.15;;;;;;;;;;4936269;28;20137;-69
2022/07/29 14:02:42;;;;;;;3.65;2.28;;;;;;;;;;4955156;28;20027;-72
2022/07/29 14:05:09;;;;;;;3.00;2.10;;;;;;;;;;4930427;29;20035;-72
2022/07/29 14:07:35;;;;;;;5.25;2.40;;;;;;;;;;4936507;28;20458;-70
2022/07/29 14:10:01;;;;;;;6.28;2.10;;;;;;;;;;4930513;28;20039;-70
2022/07/29 14:12:26;;;;;;;4.03;2.22;;;;;;;;;;4936244;28;20042;-75
2022/07/29 14:14:51;;;;;;;4.00;2.05;;;;;;;;;;4932708;28;20035;-75
2022/07/29 14:17:17;;;;;;;3.83;2.20;;;;;;;;;;4933909;29;20119;-73
2022/07/29 14:19:42;;;;;;;4.68;2.22;;;;;;;;;;4936958;28;20370;-72
2022/07/29 14:22:09;;;;;;;3.10;2.10;;;;;;;;;;4933842;28;20134;-73
2022/07/29 14:24:37;;;;;;;2.55;2.05;;;;;;;;;;4932755;28;20126;-72
2022/07/29 14:27:05;;;;;;;4.32;2.40;;;;;;;;;;4931576;28;20401;-75
2022/07/29 14:29:31;;;;;;;4.28;2.10;;;;;;;;;;4933779;29;20524;-72
2022/07/29 14:31:56;;;;;;;5.93;2.10;;;;;;;;;;4933573;28;20028;-72
2022/07/29 14:34:22;;;;;;;4.38;2.30;;;;;;;;;;4950739;28;20110;-74
2022/07/29 14:36:47;;;;;;;5.15;2.10;;;;;;;;;;4933210;28;20044;-73
2022/07/29 14:39:12;;;;;;;2.67;2.00;;;;;;;;;;4932023;28;20238;-74
2022/07/29 14:41:38;;;;;;;3.03;1.95;;;;;;;;;;4935415;29;20039;-73
2022/07/29 14:44:03;;;;;;;3.33;2.25;;;;;;;;;;4932437;29;20046;-74
2022/07/29 14:46:29;;;;;;;2.92;2.00;;;;;;;;;;4931204;28;20086;-73
2022/07/29 14:48:54;;;;;;;4.63;2.10;;;;;;;;;;4934812;29;20036;-74
2022/07/29 14:51:20;;;;;;;4.15;2.35;;;;;;;;;;4933849;28;20507;-72
2022/07/29 14:53:45;;;;;;;2.50;1.88;;;;;;;;;;4935980;29;20027;-72
2022/07/29 14:56:11;;;;;;;6.40;2.10;;;;;;;;;;4933730;29;20035;-76
2022/07/29 14:58:36;;;;;;;4.00;2.13;;;;;;;;;;4935182;28;20083;-74